Time;durP1;ratioP1;P1;durP2;ratioP2;P2;SDS_P1;SDS_P2;PMS_P1;PMS_P2;Temp;Humidity;BMP_temperature;BMP_pressure;BME280_temperature;BME280_humidity;BME280_pressure;Samples;Min_cycle;Max_cycle;Signal;HPM_P1;HPM_P2
2021/12/08 00:01:27;;;;;;;45.45;22.35;;;;;;;-3.59;100.00;99435.47;5033724;28;20037;-79
2021/12/08 00:04:11;;;;;;;54.45;23.33;;;;;;;-3.54;100.00;99435.59;5033725;28;20053;-80
2021/12/08 00:06:55;;;;;;;59.65;23.42;;;;;;;-3.45;100.00;99430.69;5033166;28;20053;-80
2021/12/08 00:15:41;;;;;;;37.08;18.50;;;;;;;-3.41;100.00;99450.44;5033082;28;20053;-79
2021/12/08 00:18:28;;;;;;;44.83;21.17;;;;;;;-3.44;100.00;99454.63;5032874;28;20045;-80
2021/12/08 00:21:14;;;;;;;35.67;19.52;;;;;;;-3.61;100.00;99449.91;5033521;28;20045;-80
2021/12/08 00:23:58;;;;;;;37.50;18.85;;;;;;;-3.62;100.00;99461.00;5032793;28;20041;-80
2021/12/08 00:26:43;;;;;;;37.22;18.80;;;;;;;-3.52;100.00;99480.88;5032735;28;20045;-80
2021/12/08 00:29:27;;;;;;;41.20;18.50;;;;;;;-3.56;100.00;99470.53;5032147;28;20370;-80
2021/12/08 00:32:11;;;;;;;36.53;18.67;;;;;;;-3.65;100.00;99449.81;5032663;28;20409;-80
2021/12/08 00:34:55;;;;;;;41.88;18.52;;;;;;;-3.49;100.00;99462.16;5033587;28;20116;-79
2021/12/08 00:37:40;;;;;;;34.25;19.40;;;;;;;-3.56;100.00;99448.34;5032518;28;20046;-80
2021/12/08 00:40:30;;;;;;;37.00;17.52;;;;;;;-3.52;100.00;99451.84;5032472;28;20046;-80
2021/12/08 00:43:14;;;;;;;34.85;18.10;;;;;;;-3.56;100.00;99421.88;5033089;28;20042;-80
2021/12/08 00:45:59;;;;;;;35.17;17.58;;;;;;;-3.63;100.00;99423.41;5032452;28;20148;-79
2021/12/08 00:48:48;;;;;;;35.22;18.88;;;;;;;-3.60;100.00;99420.94;5032331;28;20102;-80
2021/12/08 00:51:32;;;;;;;36.40;18.17;;;;;;;-3.45;100.00;99442.63;5018445;28;20045;-79
2021/12/08 00:54:17;;;;;;;37.70;18.58;;;;;;;-3.57;100.00;99451.75;5032553;28;20033;-79
2021/12/08 00:57:01;;;;;;;38.17;17.63;;;;;;;-3.57;100.00;99449.19;5032306;28;20427;-80
2021/12/08 00:59:46;;;;;;;39.22;19.35;;;;;;;-3.52;100.00;99434.78;5032857;28;20431;-80
2021/12/08 01:02:30;;;;;;;39.10;18.90;;;;;;;-3.46;100.00;99452.00;5032139;28;20045;-80
2021/12/08 01:05:18;;;;;;;36.45;17.88;;;;;;;-3.71;100.00;99416.38;5032320;28;20130;-79
2021/12/08 01:08:04;;;;;;;36.60;17.63;;;;;;;-3.60;100.00;99415.81;5032339;28;20116;-80
2021/12/08 01:10:53;;;;;;;35.50;18.48;;;;;;;-3.52;100.00;99410.88;5031946;28;20057;-80
2021/12/08 01:13:39;;;;;;;39.00;18.85;;;;;;;-3.65;100.00;99419.09;5032087;28;20049;-80
2021/12/08 01:16:24;;;;;;;41.25;20.58;;;;;;;-3.54;100.00;99431.34;5031976;28;20038;-80
2021/12/08 01:19:08;;;;;;;40.58;21.42;;;;;;;-3.74;100.00;99406.03;5032087;28;20038;-80
2021/12/08 01:21:53;;;;;;;40.38;19.90;;;;;;;-3.56;100.00;99414.19;5031932;28;20359;-80
2021/12/08 01:24:37;;;;;;;34.67;18.25;;;;;;;-3.62;100.00;99414.03;5032718;28;20431;-80
2021/12/08 01:27:22;;;;;;;37.85;19.55;;;;;;;-3.58;100.00;99406.47;5031998;28;20037;-80
2021/12/08 01:30:08;;;;;;;42.58;20.90;;;;;;;-3.63;100.00;99391.84;5032634;28;20085;-79
2021/12/08 01:32:53;;;;;;;42.92;21.55;;;;;;;-3.67;100.00;99385.78;5031964;28;20350;-80
2021/12/08 01:35:38;;;;;;;42.88;19.83;;;;;;;-3.64;100.00;99392.66;5032421;28;20373;-80
2021/12/08 01:38:22;;;;;;;40.05;19.23;;;;;;;-3.66;100.00;99415.66;5032396;28;20065;-80
2021/12/08 01:41:07;;;;;;;38.65;19.20;;;;;;;-3.66;100.00;99415.66;5032718;28;20106;-80
2021/12/08 01:46:55;;;;;;;44.78;20.77;;;;;;;-3.68;100.00;99385.72;5036129;28;20461;-79
2021/12/08 01:49:40;;;;;;;45.65;20.92;;;;;;;-3.57;100.00;99377.50;5035202;28;20445;-80
2021/12/08 01:52:25;;;;;;;44.83;20.75;;;;;;;-3.63;100.00;99382.47;5035835;28;20045;-80
2021/12/08 01:55:10;;;;;;;45.50;21.00;;;;;;;-3.59;100.00;99384.25;5035281;28;20102;-79
2021/12/08 01:57:54;;;;;;;45.85;21.52;;;;;;;-3.63;100.00;99376.47;5035233;28;20049;-80
2021/12/08 02:00:42;;;;;;;48.08;22.48;;;;;;;-3.62;100.00;99373.94;5034880;28;20045;-80
2021/12/08 02:03:27;;;;;;;47.83;22.25;;;;;;;-3.69;100.00;99359.25;5035657;28;20041;-79
2021/12/08 02:06:14;;;;;;;46.40;22.80;;;;;;;-3.64;100.00;99367.03;5035579;28;20042;-79
2021/12/08 02:08:58;;;;;;;40.70;20.50;;;;;;;-3.61;100.00;99362.84;5035371;28;20060;-79
2021/12/08 02:11:46;;;;;;;54.08;21.95;;;;;;;-3.79;100.00;99352.19;5034925;28;20049;-79
2021/12/08 02:14:32;;;;;;;51.08;22.92;;;;;;;-3.70;100.00;99351.56;5035435;28;20060;-79
2021/12/08 02:17:16;;;;;;;46.90;20.63;;;;;;;-3.73;100.00;99359.16;5035693;28;20327;-80
2021/12/08 02:20:05;;;;;;;45.33;20.60;;;;;;;-3.63;100.00;99354.28;5034737;28;20052;-80
2021/12/08 02:22:50;;;;;;;47.92;21.83;;;;;;;-3.68;100.00;99348.19;5020761;28;20041;-80
2021/12/08 02:25:35;;;;;;;43.83;20.75;;;;;;;-3.69;100.00;99338.78;5034581;28;20075;-80
2021/12/08 02:28:19;;;;;;;46.40;21.55;;;;;;;-3.64;100.00;99350.00;5020714;28;20373;-80
2021/12/08 02:31:08;;;;;;;47.83;21.75;;;;;;;-3.67;100.00;99341.38;5034709;28;20049;-80
2021/12/08 02:49:09;;;;;;;222.27;82.13;;;;;;;-3.72;100.00;99335.28;5020397;28;20565;-80
2021/12/08 02:51:53;;;;;;;254.20;92.72;;;;;;;-3.79;100.00;99324.91;5034154;28;20057;-80
2021/12/08 02:54:42;;;;;;;274.52;103.57;;;;;;;-3.66;100.00;99331.19;5034219;28;20049;-80
2021/12/08 02:57:27;;;;;;;324.30;120.45;;;;;;;-3.74;100.00;99342.06;5020319;28;20034;-80
2021/12/08 03:00:16;;;;;;;208.15;81.38;;;;;;;-3.71;100.00;99349.81;5034720;28;20045;-80
2021/12/08 03:03:03;;;;;;;121.75;47.95;;;;;;;-3.62;100.00;99353.47;5034180;28;20033;-80
2021/12/08 03:05:47;;;;;;;70.45;30.02;;;;;;;-3.76;100.00;99330.09;5034273;28;20134;-80
2021/12/08 03:08:33;;;;;;;52.22;25.17;;;;;;;-3.69;100.00;99314.88;5034711;28;20041;-80
2021/12/08 03:11:18;;;;;;;56.38;25.45;;;;;;;-3.74;100.00;99304.50;5034966;28;20056;-80
2021/12/08 03:14:09;;;;;;;46.22;24.00;;;;;;;-3.66;100.00;99325.19;5034409;28;20057;-80
2021/12/08 03:16:59;;;;;;;49.72;25.23;;;;;;;-3.61;100.00;99324.47;5034047;28;20042;-80
2021/12/08 03:19:44;;;;;;;49.40;23.13;;;;;;;-3.77;100.00;99307.91;5033787;28;20136;-80
2021/12/08 03:22:28;;;;;;;46.58;22.20;;;;;;;-3.69;100.00;99309.75;5034538;28;20384;-80
2021/12/08 03:25:17;;;;;;;54.45;25.00;;;;;;;-3.71;100.00;99317.38;5034533;28;20094;-80
2021/12/08 03:28:08;;;;;;;93.75;41.10;;;;;;;-3.71;100.00;99306.28;5020021;28;20060;-80
2021/12/08 03:31:00;;;;;;;100.70;44.63;;;;;;;-3.84;100.00;99271.84;5033891;28;20042;-79
2021/12/08 03:33:45;;;;;;;64.63;28.63;;;;;;;-3.66;100.00;99294.47;5033546;28;20354;-80
2021/12/08 03:36:29;;;;;;;114.97;50.65;;;;;;;-3.78;100.00;99298.47;5033364;28;20045;-80
2021/12/08 03:39:13;;;;;;;103.00;49.15;;;;;;;-3.82;100.00;99286.44;5034291;28;20430;-80
2021/12/08 03:41:58;;;;;;;96.10;47.38;;;;;;;-3.65;100.00;99293.63;5034276;28;20495;-80
2021/12/08 03:44:43;;;;;;;101.70;38.58;;;;;;;-3.69;100.00;99297.81;5033739;28;20143;-80
2021/12/08 03:47:29;;;;;;;66.70;26.90;;;;;;;-3.66;100.00;99287.66;5033767;28;20370;-80
2021/12/08 03:50:16;;;;;;;68.78;26.73;;;;;;;-3.61;100.00;99280.06;5034592;28;20046;-80
2021/12/08 03:53:00;;;;;;;51.55;22.45;;;;;;;-3.79;100.00;99283.09;5033863;28;20102;-80
2021/12/08 03:55:47;;;;;;;53.58;20.60;;;;;;;-3.68;100.00;99281.63;5106847;27;20057;-79
2021/12/08 03:58:32;;;;;;;51.33;20.65;;;;;;;-3.71;100.00;99252.53;5033993;28;20045;-80
2021/12/08 04:01:16;;;;;;;53.60;21.25;;;;;;;-3.80;100.00;99261.75;5033915;28;20324;-80
2021/12/08 04:04:06;;;;;;;68.65;25.80;;;;;;;-3.73;100.00;99265.31;5033324;28;20080;-80
2021/12/08 04:06:52;;;;;;;62.70;23.25;;;;;;;-3.73;100.00;99255.06;5033166;28;20053;-80
2021/12/08 04:09:41;;;;;;;48.75;20.17;;;;;;;-3.67;100.00;99259.44;5032818;28;20053;-80
2021/12/08 04:12:25;;;;;;;43.83;18.33;;;;;;;-3.83;100.00;99254.00;5033810;28;20067;-80
2021/12/08 04:15:11;;;;;;;52.80;20.73;;;;;;;-3.84;100.00;99251.38;5019145;28;20404;-80
2021/12/08 04:17:55;;;;;;;87.47;29.27;;;;;;;-3.84;100.00;99251.38;5032953;28;20042;-80
2021/12/08 04:20:46;;;;;;;64.72;22.58;;;;;;;-3.89;100.00;99248.72;5018927;28;20075;-80
2021/12/08 04:23:35;;;;;;;82.03;25.60;;;;;;;-3.77;100.00;99263.50;5032922;28;20343;-80
2021/12/08 04:26:25;;;;;;;109.28;31.17;;;;;;;-3.87;100.00;99241.94;5032930;28;20045;-80
2021/12/08 04:29:11;;;;;;;70.78;25.80;;;;;;;-3.77;100.00;99250.69;5019112;28;20041;-80
2021/12/08 04:31:57;;;;;;;76.38;25.50;;;;;;;-3.84;100.00;99236.88;5032734;28;20419;-80
2021/12/08 04:34:45;;;;;;;65.00;25.38;;;;;;;-3.92;100.00;99238.41;5033319;28;20049;-80
2021/12/08 04:37:35;;;;;;;76.00;25.02;;;;;;;-3.84;100.00;99241.16;5032546;28;20044;-80
2021/12/08 04:43:35;;;;;;;62.60;22.27;;;;;;;-3.88;100.00;99235.09;5033377;28;20041;-80
2021/12/08 04:52:45;;;;;;;59.35;23.75;;;;;;;-3.88;100.00;99222.28;5033042;28;20061;-79
2021/12/08 05:07:59;;;;;;;67.30;25.17;;;;;;;-3.98;100.00;99211.81;5038363;28;20382;-80
2021/12/08 05:10:44;;;;;;;88.65;31.05;;;;;;;-4.01;100.00;99212.59;5032700;28;20053;-80
2021/12/08 05:13:29;;;;;;;69.20;26.17;;;;;;;-4.07;100.00;99218.44;5031964;28;20114;-80
2021/12/08 05:16:14;;;;;;;87.93;30.20;;;;;;;-3.97;100.00;99226.34;5033875;28;20048;-80
2021/12/08 05:19:11;;;;;;;105.25;32.90;;;;;;;-3.90;100.00;99216.31;5036512;28;20049;-80
2021/12/08 05:22:02;;;;;;;106.32;33.55;;;;;;;-3.99;100.00;99226.31;5036381;28;20037;-80
2021/12/08 05:24:50;;;;;;;74.32;28.33;;;;;;;-4.00;100.00;99211.78;5035558;28;20041;-79
2021/12/08 05:27:44;;;;;;;56.58;23.73;;;;;;;-3.94;100.00;99200.81;5036215;28;20044;-80
2021/12/08 05:30:39;;;;;;;64.53;26.63;;;;;;;-3.88;100.00;99200.97;5021651;28;20045;-80
2021/12/08 05:33:24;;;;;;;83.63;31.73;;;;;;;-4.05;100.00;99198.03;5035612;28;20335;-80
2021/12/08 05:36:10;;;;;;;75.88;28.50;;;;;;;-3.96;100.00;99205.03;5035515;28;20041;-80
2021/12/08 05:38:57;;;;;;;108.20;37.53;;;;;;;-4.11;100.00;99210.66;5035447;28;20430;-80
2021/12/08 05:41:42;;;;;;;98.95;37.35;;;;;;;-3.89;100.00;99209.47;5036062;28;20053;-80
2021/12/08 05:44:27;;;;;;;60.38;24.33;;;;;;;-3.93;100.00;99207.66;5036095;28;20075;-80
2021/12/08 05:47:23;;;;;;;61.58;26.35;;;;;;;-4.12;100.00;99191.03;5035607;28;20048;-80
2021/12/08 05:50:09;;;;;;;55.50;24.42;;;;;;;-3.98;100.00;99188.78;5036317;28;20041;-80
2021/12/08 05:52:55;;;;;;;49.53;22.83;;;;;;;-4.09;100.00;99188.56;5035455;28;20046;-80
2021/12/08 05:55:41;;;;;;;57.40;23.85;;;;;;;-4.08;100.00;99198.81;5035190;28;20049;-80
2021/12/08 05:58:27;;;;;;;130.25;47.90;;;;;;;-4.07;100.00;99189.44;5036074;28;20044;-80
2021/12/08 06:01:49;;;;;;;176.93;64.88;;;;;;;-4.08;100.00;99211.59;5035722;28;20042;-80
2021/12/08 06:04:34;;;;;;;144.38;62.40;;;;;;;-3.94;100.00;99199.13;5026523;28;20053;-80
2021/12/08 06:07:21;;;;;;;210.25;86.65;;;;;;;-4.00;100.00;99196.41;5035899;28;20043;-80
2021/12/08 06:10:13;;;;;;;205.43;96.22;;;;;;;-4.07;100.00;99199.66;5020935;28;20084;-80
2021/12/08 06:12:59;;;;;;;180.90;71.50;;;;;;;-3.99;100.00;99185.38;5034967;28;20046;-80
2021/12/08 06:15:46;;;;;;;167.45;66.07;;;;;;;-4.04;100.00;99187.81;5022743;28;20060;-79
2021/12/08 06:18:38;;;;;;;186.65;79.95;;;;;;;-3.94;100.00;99199.13;5021533;28;20045;-80
2021/12/08 06:21:26;;;;;;;177.05;73.68;;;;;;;-4.00;100.00;99193.84;5019182;28;20042;-80
2021/12/08 06:24:13;;;;;;;155.05;66.50;;;;;;;-4.11;100.00;99188.50;5019071;28;20054;-80
2021/12/08 06:26:58;;;;;;;172.52;78.05;;;;;;;-4.04;100.00;99200.59;5032989;28;20354;-78
2021/12/08 06:29:45;;;;;;;147.57;67.97;;;;;;;-3.99;100.00;99200.72;5033943;28;20050;-78
2021/12/08 06:32:30;;;;;;;154.55;65.43;;;;;;;-4.13;100.00;99202.94;5033196;28;20048;-78
2021/12/08 06:35:40;;;;;;;110.25;52.20;;;;;;;-4.04;100.00;99209.97;5033917;28;20041;-80
2021/12/08 06:38:25;;;;;;;117.85;51.60;;;;;;;-4.11;100.00;99206.41;5033441;28;20046;-80
2021/12/08 06:41:17;;;;;;;141.85;64.80;;;;;;;-4.08;100.00;99210.75;5032705;28;20109;-80
2021/12/08 06:44:12;;;;;;;141.68;65.90;;;;;;;-4.13;100.00;99197.81;5034569;28;20037;-80
2021/12/08 06:46:58;;;;;;;113.30;51.90;;;;;;;-4.06;100.00;99215.06;5034384;28;20045;-80
2021/12/08 06:49:45;;;;;;;110.47;53.88;;;;;;;-3.98;100.00;99215.25;5034991;28;20447;-80
2021/12/08 06:52:33;;;;;;;75.10;38.30;;;;;;;-4.04;100.00;99218.50;5034327;28;20041;-80
2021/12/08 06:55:22;;;;;;;93.75;46.78;;;;;;;-4.08;100.00;99220.97;5034944;28;20049;-80
2021/12/08 06:58:12;;;;;;;102.32;47.60;;;;;;;-4.09;100.00;99221.81;5020440;28;20042;-80
2021/12/08 07:01:27;;;;;;;88.68;44.30;;;;;;;-3.97;100.00;99224.63;5034896;28;20042;-80
2021/12/08 07:07:15;;;;;;;82.05;41.40;;;;;;;-4.01;100.00;99226.25;5034303;28;20049;-80
2021/12/08 07:10:24;;;;;;;69.32;33.40;;;;;;;-4.00;100.00;99215.22;5005934;28;20057;-80
2021/12/08 07:13:20;;;;;;;77.50;33.33;;;;;;;-3.98;100.00;99222.06;5033994;28;20048;-80
2021/12/08 07:16:09;;;;;;;74.03;31.50;;;;;;;-3.95;100.00;99232.38;5033823;28;20045;-80
2021/12/08 07:19:10;;;;;;;82.45;35.30;;;;;;;-4.09;100.00;99225.22;5033739;28;20110;-80
2021/12/08 07:21:56;;;;;;;69.43;29.27;;;;;;;-4.14;100.00;99225.94;5033846;28;20037;-80
2021/12/08 07:24:43;;;;;;;64.60;30.00;;;;;;;-4.09;100.00;99221.81;5033858;28;20041;-80
2021/12/08 07:27:31;;;;;;;56.65;27.85;;;;;;;-4.12;100.00;99231.97;5034198;28;20045;-80
2021/12/08 07:30:21;;;;;;;53.42;24.92;;;;;;;-4.15;100.00;99222.53;5033671;28;20052;-80
2021/12/08 07:33:06;;;;;;;57.40;23.35;;;;;;;-4.20;100.00;99229.19;5032972;28;20050;-80
2021/12/08 07:35:54;;;;;;;54.63;24.65;;;;;;;-4.14;100.00;99229.34;5032828;28;20042;-80
2021/12/08 07:38:39;;;;;;;55.22;24.15;;;;;;;-4.13;100.00;99222.53;5031934;28;20041;-80
2021/12/08 07:41:30;;;;;;;58.67;25.98;;;;;;;-4.19;100.00;99225.84;5032179;28;20041;-80
2021/12/08 07:44:15;;;;;;;60.47;28.95;;;;;;;-4.24;100.00;99224.84;5032485;28;20076;-80
2021/12/08 07:47:08;;;;;;;49.20;24.63;;;;;;;-4.35;100.00;99223.72;5031862;28;20045;-80
2021/12/08 07:49:57;;;;;;;52.80;25.75;;;;;;;-4.37;100.00;99225.38;5032433;28;20052;-80
2021/12/08 07:52:44;;;;;;;55.80;24.90;;;;;;;-4.27;100.00;99223.06;5032671;28;20045;-80
2021/12/08 07:55:34;;;;;;;49.45;22.85;;;;;;;-4.41;100.00;99213.34;5033508;28;20049;-80
2021/12/08 07:58:20;;;;;;;58.20;25.02;;;;;;;-4.35;100.00;99233.97;5032017;28;20052;-80
2021/12/08 08:01:15;;;;;;;51.30;24.60;;;;;;;-4.44;100.00;99226.91;5032754;28;20080;-80
2021/12/08 08:04:03;;;;;;;58.55;27.30;;;;;;;-4.38;100.00;99226.22;5018617;28;20041;-80
2021/12/08 08:06:53;;;;;;;49.78;23.85;;;;;;;-4.42;100.00;99225.25;5033125;28;20397;-80
2021/12/08 08:09:42;;;;;;;50.50;25.50;;;;;;;-4.52;100.00;99225.84;5032942;28;20054;-80
2021/12/08 08:12:30;;;;;;;47.97;24.30;;;;;;;-4.41;100.00;99226.13;5033687;28;20053;-80
2021/12/08 08:15:21;;;;;;;49.58;25.60;;;;;;;-4.44;100.00;99226.03;5033811;28;20042;-80
2021/12/08 08:18:08;;;;;;;55.63;26.15;;;;;;;-4.39;100.00;99227.00;5033067;28;20429;-80
2021/12/08 08:20:57;;;;;;;58.67;25.33;;;;;;;-4.58;100.00;99225.66;5018903;28;20038;-80
2021/12/08 08:23:42;;;;;;;56.33;25.67;;;;;;;-4.53;100.00;99231.78;5032790;28;20056;-80
2021/12/08 08:26:29;;;;;;;58.63;27.10;;;;;;;-4.46;100.00;99236.22;5018764;28;20037;-80
2021/12/08 08:29:14;;;;;;;66.45;30.15;;;;;;;-4.57;100.00;99241.06;5032958;28;20037;-80
2021/12/08 08:32:21;;;;;;;75.35;31.20;;;;;;;-4.48;100.00;99230.22;5033455;28;20335;-80
2021/12/08 08:35:18;;;;;;;73.55;31.40;;;;;;;-4.57;100.00;99233.41;5033508;28;20050;-80
2021/12/08 08:38:06;;;;;;;69.57;29.98;;;;;;;-4.59;100.00;99227.38;5033349;28;20041;-80
2021/12/08 08:40:59;;;;;;;92.25;40.08;;;;;;;-4.50;100.00;99213.97;5033792;28;20041;-80
2021/12/08 08:43:44;;;;;;;101.05;41.53;;;;;;;-4.53;100.00;99206.22;5032682;28;20458;-80
2021/12/08 08:46:35;;;;;;;98.88;41.65;;;;;;;-4.51;100.00;99213.09;5018666;28;20041;-80
2021/12/08 08:49:24;;;;;;;70.40;29.50;;;;;;;-4.46;100.00;99216.63;5032531;28;20045;-80
2021/12/08 08:52:22;;;;;;;100.85;43.42;;;;;;;-4.53;100.00;99219.84;5032801;28;20046;-80
2021/12/08 08:55:15;;;;;;;105.38;44.40;;;;;;;-4.39;100.00;99222.75;5032493;28;20459;-80
2021/12/08 08:58:02;;;;;;;119.32;49.92;;;;;;;-4.26;100.00;99226.50;5033289;28;20065;-78
2021/12/08 09:00:53;;;;;;;100.63;43.30;;;;;;;-4.50;100.00;99222.50;5031782;28;20060;-78
2021/12/08 09:03:40;;;;;;;87.03;38.65;;;;;;;-4.51;100.00;99228.44;5032282;28;20116;-79
2021/12/08 09:06:33;;;;;;;94.57;39.92;;;;;;;-4.21;100.00;99230.03;5032207;28;20046;-80
2021/12/08 09:09:25;;;;;;;86.07;38.13;;;;;;;-4.26;100.00;99229.03;5032025;28;20050;-80
2021/12/08 09:12:14;;;;;;;;;;;;;;;-4.28;100.00;99223.91;5034252;28;20041;-80
2021/12/08 09:15:13;;;;;;;65.95;31.48;;;;;;;-4.59;100.00;99221.38;5016643;28;19920;-80
2021/12/08 09:18:29;;;;;;;53.90;26.70;;;;;;;-4.34;100.00;99215.22;5030591;28;20038;-80
2021/12/08 09:21:23;;;;;;;40.88;19.30;;;;;;;-4.54;100.00;99215.59;5030816;28;20125;-80
2021/12/08 09:24:27;;;;;;;45.80;20.60;;;;;;;-4.41;100.00;99213.34;5030448;28;20041;-80
2021/12/08 09:27:13;;;;;;;57.53;26.05;;;;;;;-4.52;100.00;99213.94;5031131;28;20049;-80
2021/12/08 09:30:16;;;;;;;61.72;31.65;;;;;;;-4.37;100.00;99217.69;5030266;28;20045;-80
2021/12/08 09:33:08;;;;;;;52.60;23.38;;;;;;;-4.38;100.00;99223.66;5031148;28;20041;-80
2021/12/08 09:35:59;;;;;;;55.72;24.20;;;;;;;-4.60;100.00;99217.13;5017650;28;20041;-80
2021/12/08 09:38:52;;;;;;;56.35;25.58;;;;;;;-4.34;100.00;99210.97;5032082;28;20319;-80
2021/12/08 09:41:41;;;;;;;53.13;25.42;;;;;;;-4.49;100.00;99208.00;5032658;28;20427;-80
2021/12/08 09:44:30;;;;;;;46.33;22.65;;;;;;;-4.56;100.00;99201.88;5031882;28;20057;-80
2021/12/08 09:47:16;;;;;;;81.93;35.95;;;;;;;-4.57;100.00;99196.75;5019845;28;20064;-80
2021/12/08 09:50:06;;;;;;;49.75;26.65;;;;;;;-4.52;100.00;99203.72;5033301;28;20049;-80
2021/12/08 09:52:51;;;;;;;46.90;23.15;;;;;;;-4.54;100.00;99191.72;5033214;28;20064;-80
2021/12/08 09:55:35;;;;;;;147.25;71.38;;;;;;;-4.58;100.00;99195.88;5032003;28;20041;-79
2021/12/08 09:58:20;;;;;;;207.00;95.82;;;;;;;-4.54;100.00;99178.94;5033232;28;20064;-80
2021/12/08 10:01:07;;;;;;;289.98;121.97;;;;;;;-4.46;100.00;99185.94;5031992;28;20038;-78
2021/12/08 10:03:53;;;;;;;362.88;159.73;;;;;;;-4.50;100.00;99170.50;5034405;28;20450;-78
2021/12/08 10:06:41;;;;;;;162.95;66.82;;;;;;;-4.37;100.00;99172.53;5035901;28;20106;-78
2021/12/08 10:09:25;;;;;;;257.13;108.93;;;;;;;-4.53;100.00;99172.97;5035301;28;20057;-78
2021/12/08 10:12:10;;;;;;;117.65;50.72;;;;;;;-4.60;100.00;99179.63;5035092;28;20393;-78
2021/12/08 10:14:57;;;;;;;197.50;86.55;;;;;;;-4.42;100.00;99176.66;5036296;28;20050;-78
2021/12/08 10:17:42;;;;;;;187.75;70.43;;;;;;;-4.35;100.00;99172.59;5035266;28;20041;-78
2021/12/08 10:20:34;;;;;;;108.60;46.88;;;;;;;-4.47;100.00;99150.13;5035364;28;20052;-78
2021/12/08 10:23:20;;;;;;;110.05;46.45;;;;;;;-4.12;100.00;99158.66;5037951;28;20038;-78
2021/12/08 10:26:06;;;;;;;82.18;37.67;;;;;;;-4.15;100.00;99160.28;5037338;28;20050;-78
2021/12/08 10:28:56;;;;;;;62.25;32.22;;;;;;;-4.27;100.00;99155.72;5036126;28;20435;-78
2021/12/08 10:31:45;;;;;;;58.05;28.25;;;;;;;-4.34;100.00;99143.63;5021146;28;20049;-78
2021/12/08 10:34:46;;;;;;;60.97;29.15;;;;;;;-4.22;100.00;99151.59;5036081;28;20046;-78
2021/12/08 10:37:30;;;;;;;68.28;28.98;;;;;;;-4.17;100.00;99139.75;5035513;28;20045;-78
2021/12/08 10:40:15;;;;;;;67.50;31.67;;;;;;;-4.08;100.00;99137.41;5036006;28;20038;-78
2021/12/08 10:43:13;;;;;;;180.82;82.68;;;;;;;-4.17;100.00;99131.22;5035835;28;20354;-78
2021/12/08 10:46:11;;;;;;;71.32;32.05;;;;;;;-4.24;100.00;99123.41;5034839;28;20076;-78
2021/12/08 10:49:12;;;;;;;102.22;46.50;;;;;;;-4.36;100.00;99127.38;5035206;28;20367;-78
2021/12/08 10:55:01;;;;;;;61.97;27.55;;;;;;;-4.34;100.00;99124.03;5020582;28;20060;-78
2021/12/08 10:57:53;;;;;;;54.58;26.70;;;;;;;-4.38;100.00;99123.94;5020532;28;20057;-78
2021/12/08 11:00:39;;;;;;;76.93;37.13;;;;;;;-4.33;100.00;99119.78;5034449;28;20060;-78
2021/12/08 11:03:29;;;;;;;40.13;18.73;;;;;;;-4.47;100.00;99114.34;5034329;28;20120;-78
2021/12/08 11:06:16;;;;;;;53.17;22.58;;;;;;;-4.20;100.00;99113.25;5034940;28;20418;-78
2021/12/08 11:09:02;;;;;;;60.90;27.70;;;;;;;-4.06;100.00;99115.31;5034228;28;20053;-78
2021/12/08 11:11:48;;;;;;;49.95;23.67;;;;;;;-4.11;100.00;99109.19;5034746;28;20037;-78
2021/12/08 11:14:47;;;;;;;52.65;22.25;;;;;;;-4.21;100.00;99104.72;5034676;28;20083;-78
2021/12/08 11:17:34;;;;;;;54.38;24.10;;;;;;;-4.10;100.00;99102.38;5033909;28;20041;-78
2021/12/08 11:20:29;;;;;;;55.22;24.13;;;;;;;-4.16;100.00;99098.03;5033797;28;20316;-78
2021/12/08 11:23:28;;;;;;;62.03;27.75;;;;;;;-4.18;100.00;99078.34;5036943;28;20045;-77
2021/12/08 11:26:29;;;;;;;68.43;30.13;;;;;;;-4.10;100.00;99100.69;5036938;28;20120;-78
2021/12/08 11:29:16;;;;;;;59.70;26.05;;;;;;;-4.25;100.00;99090.13;5034154;28;20037;-78
2021/12/08 11:32:03;;;;;;;62.05;24.42;;;;;;;-4.27;100.00;99076.44;5034126;28;20431;-78
2021/12/08 11:34:48;;;;;;;60.83;26.75;;;;;;;-4.19;100.00;99071.47;5033853;28;20097;-78
2021/12/08 11:37:35;;;;;;;49.03;24.55;;;;;;;-4.22;100.00;99079.97;5034819;28;20045;-78
2021/12/08 11:40:20;;;;;;;62.75;26.33;;;;;;;-4.09;100.00;99055.53;5034755;28;20038;-78
2021/12/08 11:43:15;;;;;;;53.63;22.77;;;;;;;-4.11;100.00;99080.22;5034691;28;20041;-78
2021/12/08 11:46:14;;;;;;;82.93;28.88;;;;;;;-4.22;100.00;99085.09;5033670;28;20041;-78
2021/12/08 11:49:07;;;;;;;153.63;46.80;;;;;;;-4.06;100.00;99073.50;5033534;28;20346;-78
2021/12/08 11:51:59;;;;;;;126.45;43.17;;;;;;;-4.09;100.00;99068.31;5019676;28;20057;-77
2021/12/08 11:54:48;;;;;;;134.75;46.78;;;;;;;-4.09;100.00;99070.88;5034152;28;20034;-78
2021/12/08 11:57:39;;;;;;;142.60;50.33;;;;;;;-4.20;100.00;99072.31;5033552;28;20431;-78
2021/12/08 12:00:32;;;;;;;152.30;51.40;;;;;;;-4.07;100.00;99071.75;5033304;28;20069;-77
2021/12/08 12:03:18;;;;;;;188.73;61.65;;;;;;;-4.06;100.00;99060.72;5033384;28;20393;-78
2021/12/08 12:06:02;;;;;;;206.55;67.70;;;;;;;-3.92;100.00;99063.56;5034039;28;20046;-78
2021/12/08 12:08:47;;;;;;;86.75;36.10;;;;;;;-3.98;100.00;99048.94;5034035;28;20053;-78
2021/12/08 12:11:32;;;;;;;117.13;41.75;;;;;;;-4.01;100.00;99072.75;5019949;28;20411;-80
2021/12/08 12:14:17;;;;;;;60.78;29.02;;;;;;;-4.03;100.00;99065.88;5034932;28;20045;-80
2021/12/08 12:17:01;;;;;;;60.50;27.15;;;;;;;-3.84;100.00;99072.25;5034127;28;20428;-80
2021/12/08 12:20:01;;;;;;;90.05;36.00;;;;;;;-3.86;100.00;99074.78;5033573;28;20060;-80
2021/12/08 12:23:05;;;;;;;95.05;38.30;;;;;;;-3.76;100.00;99076.69;5033383;28;20050;-80
2021/12/08 12:26:09;;;;;;;;;;;;;;;-4.04;100.00;99077.81;5038461;28;20041;-80
2021/12/08 12:29:18;;;;;;;58.35;25.92;;;;;;;-4.02;100.00;99080.41;5035379;28;19921;-80
2021/12/08 12:32:26;;;;;;;49.22;23.58;;;;;;;-3.96;100.00;99093.34;5035926;28;20049;-80
2021/12/08 12:35:23;;;;;;;58.20;23.67;;;;;;;-3.84;100.00;99090.16;5035450;28;20033;-80
2021/12/08 12:38:11;;;;;;;52.50;24.58;;;;;;;-4.11;100.00;99098.13;5033755;28;20033;-78
2021/12/08 12:40:57;;;;;;;58.13;29.25;;;;;;;-4.08;100.00;99085.41;5033025;28;20459;-79
2021/12/08 12:43:43;;;;;;;53.03;23.85;;;;;;;-4.21;100.00;99076.59;5033605;28;20098;-80
2021/12/08 12:46:29;;;;;;;55.42;27.63;;;;;;;-4.17;100.00;99070.69;5019416;28;20045;-80
2021/12/08 12:49:22;;;;;;;79.88;33.83;;;;;;;-4.23;100.00;99066.31;5035997;28;20431;-80
2021/12/08 12:52:08;;;;;;;78.03;34.40;;;;;;;-4.09;100.00;99047.88;5036141;28;20041;-80
2021/12/08 12:55:11;;;;;;;64.47;30.42;;;;;;;-4.27;100.00;99048.31;5035832;28;20045;-80
2021/12/08 12:58:09;;;;;;;69.35;30.10;;;;;;;-4.20;100.00;99062.09;5035124;28;20124;-80
2021/12/08 13:01:10;;;;;;;55.67;28.42;;;;;;;-4.28;100.00;99055.13;5033117;28;20046;-80
2021/12/08 13:03:58;;;;;;;63.70;31.05;;;;;;;-4.18;100.00;99056.19;5033546;28;20042;-80
2021/12/08 13:07:05;;;;;;;53.72;24.83;;;;;;;-4.16;100.00;99056.22;5032087;28;20067;-80
2021/12/08 13:09:54;;;;;;;99.88;55.45;;;;;;;-4.23;100.00;99050.09;5018048;28;20065;-80
2021/12/08 13:12:44;;;;;;;67.88;34.75;;;;;;;-4.29;100.00;99060.19;5031241;28;20042;-79
2021/12/08 13:15:30;;;;;;;59.25;28.48;;;;;;;-4.41;100.00;99059.94;5031159;28;20098;-79
2021/12/08 13:18:16;;;;;;;65.15;32.42;;;;;;;-4.37;100.00;99057.47;5031276;28;20045;-77
2021/12/08 13:21:05;;;;;;;85.32;36.83;;;;;;;-4.45;100.00;99046.22;5030377;28;20037;-77
2021/12/08 13:23:50;;;;;;;70.80;32.17;;;;;;;-4.34;100.00;99049.00;5031349;28;20064;-79
2021/12/08 13:26:48;;;;;;;104.80;44.65;;;;;;;-4.43;100.00;99059.03;5031145;28;20041;-79
2021/12/08 13:29:36;;;;;;;90.88;39.30;;;;;;;-4.49;100.00;99041.84;5030433;28;20077;-79
2021/12/08 13:32:38;;;;;;;51.88;27.05;;;;;;;-4.46;100.00;99049.59;5016686;28;20046;-79
2021/12/08 13:35:35;;;;;;;48.08;21.83;;;;;;;-4.50;100.00;99048.66;5017265;28;20037;-79
2021/12/08 13:38:21;;;;;;;47.35;23.20;;;;;;;-4.44;100.00;99054.75;5035525;28;20052;-79